Time;durP1;ratioP1;P1;durP2;ratioP2;P2;SDS_P1;SDS_P2;PMS_P1;PMS_P2;Temp;Humidity;BMP_temperature;BMP_pressure;BME280_temperature;BME280_humidity;BME280_pressure;Samples;Min_cycle;Max_cycle;Signal;HPM_P1;HPM_P2
2021/12/17 00:04:30;;;;;;;25.05;14.60;;;9.90;99.90;;;;;;5141687;27;20055;-73
2021/12/17 00:06:56;;;;;;;22.58;13.90;;;9.80;99.90;;;;;;5144989;27;20153;-73
2021/12/17 00:09:22;;;;;;;23.08;14.55;;;9.80;99.90;;;;;;5123271;27;20530;-73
2021/12/17 00:11:48;;;;;;;24.98;14.65;;;9.80;99.90;;;;;;5141888;27;20039;-73
2021/12/17 00:14:22;;;;;;;22.27;15.45;;;9.80;99.90;;;;;;5122280;27;20059;-73
2021/12/17 00:16:47;;;;;;;26.08;14.75;;;9.80;99.90;;;;;;5123361;27;20082;-73
2021/12/17 00:19:23;;;;;;;27.17;16.40;;;9.80;99.90;;;;;;5141982;27;20149;-73
2021/12/17 00:49:00;;;;;;;27.42;16.27;;;9.70;99.90;;;;;;5122126;27;20064;-74
2021/12/17 00:54:00;;;;;;;33.33;14.55;;;9.70;99.90;;;;;;5141067;27;20375;-74
2021/12/17 00:56:26;;;;;;;27.63;17.05;;;9.70;99.90;;;;;;5121445;27;20050;-74
2021/12/17 00:58:52;;;;;;;28.50;16.83;;;9.70;99.90;;;;;;5128077;27;20057;-75
2021/12/17 01:01:19;;;;;;;27.40;15.75;;;9.70;99.90;;;;;;5119186;27;20046;-74
2021/12/17 01:03:45;;;;;;;29.80;17.67;;;9.70;99.90;;;;;;5119257;27;20055;-75
2021/12/17 01:06:11;;;;;;;27.88;14.60;;;9.60;99.90;;;;;;5120304;27;20058;-74
2021/12/17 01:08:36;;;;;;;24.02;15.30;;;9.60;99.90;;;;;;5123814;27;20126;-74
2021/12/17 01:11:03;;;;;;;23.70;14.90;;;9.50;99.90;;;;;;5139273;27;20055;-73
2021/12/17 01:13:29;;;;;;;22.10;13.95;;;9.60;99.90;;;;;;5120794;27;20049;-74
2021/12/17 01:15:56;;;;;;;27.67;15.38;;;9.60;99.90;;;;;;5140300;27;20066;-74
2021/12/17 01:18:32;;;;;;;24.83;15.27;;;9.60;99.90;;;;;;5121117;27;20091;-74
2021/12/17 01:37:04;;;;;;;17.08;11.80;;;9.50;99.90;;;;;;5139252;27;20038;-74
2021/12/17 01:42:05;;;;;;;22.15;11.43;;;9.50;99.90;;;;;;5120566;27;20050;-75
2021/12/17 01:44:34;;;;;;;17.40;10.90;;;9.50;99.90;;;;;;5117599;27;20603;-75
2021/12/17 01:47:00;;;;;;;19.33;11.65;;;9.40;99.90;;;;;;5116124;27;20054;-75
2021/12/17 02:00:10;;;;;;;16.83;9.90;;;9.30;99.90;;;;;;5143949;27;20053;-76
2021/12/17 02:02:43;;;;;;;13.77;9.60;;;9.20;99.90;;;;;;5120903;27;20062;-76
2021/12/17 02:05:10;;;;;;;18.60;10.60;;;9.30;99.90;;;;;;5121464;27;20050;-76
2021/12/17 02:07:36;;;;;;;18.23;9.98;;;9.30;99.90;;;;;;5139769;27;20053;-76
2021/12/17 02:10:36;;;;;;;14.65;11.15;;;9.30;99.90;;;;;;5140203;27;20058;-76
2021/12/17 02:21:26;;;;;;;17.38;9.57;;;9.50;99.90;;;;;;5135179;27;20169;-75
2021/12/17 02:30:03;;;;;;;14.63;8.60;;;9.50;99.90;;;;;;5142359;27;20153;-76
2021/12/17 02:32:30;;;;;;;16.60;8.40;;;9.50;99.90;;;;;;5120177;27;20745;-76
2021/12/17 02:37:41;;;;;;;12.75;8.30;;;9.50;99.90;;;;;;5125053;27;20051;-76
2021/12/17 02:45:36;;;;;;;13.45;7.68;;;9.40;99.90;;;;;;5142690;27;20054;-76
2021/12/17 02:48:12;;;;;;;13.13;8.05;;;9.30;99.90;;;;;;5124535;27;20054;-76
2021/12/17 02:50:45;;;;;;;10.57;7.13;;;9.30;99.90;;;;;;5142939;27;20046;-76
2021/12/17 02:53:13;;;;;;;11.20;7.82;;;9.30;99.90;;;;;;5124158;27;20133;-76
2021/12/17 02:55:44;;;;;;;9.43;7.05;;;9.30;99.90;;;;;;5123843;27;20106;-76
2021/12/17 02:58:10;;;;;;;12.52;6.70;;;9.30;99.90;;;;;;5136754;27;20051;-76
2021/12/17 03:00:40;;;;;;;16.10;8.60;;;9.30;99.90;;;;;;5121394;27;20050;-76
2021/12/17 03:03:07;;;;;;;11.02;5.70;;;9.30;99.90;;;;;;5121482;27;20099;-76
2021/12/17 03:05:33;;;;;;;11.27;7.22;;;9.30;99.90;;;;;;5140464;27;20074;-76
2021/12/17 03:08:00;;;;;;;9.38;5.55;;;9.30;99.90;;;;;;5121284;27;20743;-76
2021/12/17 03:10:26;;;;;;;7.88;5.85;;;9.30;99.90;;;;;;5120950;27;20046;-76
2021/12/17 03:13:02;;;;;;;9.52;6.75;;;9.30;99.90;;;;;;5140426;27;20087;-76
2021/12/17 03:26:26;;;;;;;9.82;5.57;;;9.50;99.90;;;;;;5103012;27;20053;-76
2021/12/17 03:28:58;;;;;;;8.00;4.45;;;9.50;99.90;;;;;;5120587;27;20077;-76
2021/12/17 03:31:25;;;;;;;7.07;4.70;;;9.50;99.90;;;;;;5117539;27;20051;-76
2021/12/17 03:33:54;;;;;;;8.05;4.72;;;9.50;99.90;;;;;;5138890;27;20038;-76
2021/12/17 03:36:20;;;;;;;8.63;5.40;;;9.50;99.90;;;;;;5140144;27;20035;-76
2021/12/17 03:38:49;;;;;;;8.75;4.80;;;9.50;99.90;;;;;;5120540;27;20045;-75
2021/12/17 03:41:20;;;;;;;7.28;5.20;;;9.60;99.90;;;;;;5120993;27;20482;-76
2021/12/17 03:43:48;;;;;;;5.60;4.40;;;9.60;99.90;;;;;;5137441;27;20042;-76
2021/12/17 03:46:15;;;;;;;7.07;5.40;;;9.60;99.90;;;;;;5118796;27;20093;-76
2021/12/17 03:48:41;;;;;;;6.60;4.68;;;9.60;99.90;;;;;;5139096;27;20049;-77
2021/12/17 03:51:13;;;;;;;9.30;4.65;;;9.60;99.90;;;;;;5121111;27;20141;-77
2021/12/17 03:53:41;;;;;;;10.13;5.72;;;9.70;99.90;;;;;;5119393;27;20087;-77
2021/12/17 03:56:07;;;;;;;6.40;5.35;;;9.60;99.90;;;;;;5120541;27;20195;-77
2021/12/17 03:58:33;;;;;;;9.90;5.65;;;9.60;99.90;;;;;;5139367;27;20087;-76
2021/12/17 04:00:58;;;;;;;8.93;4.90;;;9.60;99.90;;;;;;5123071;27;20043;-77
2021/12/17 04:03:24;;;;;;;9.88;5.38;;;9.60;99.90;;;;;;5122812;27;20157;-77
2021/12/17 04:05:49;;;;;;;8.82;5.18;;;9.60;99.90;;;;;;5125323;27;20580;-77
2021/12/17 04:08:15;;;;;;;9.30;5.07;;;9.60;99.90;;;;;;5123106;27;20803;-77
2021/12/17 04:10:45;;;;;;;6.57;5.13;;;9.50;99.90;;;;;;5121577;27;20055;-77
2021/12/17 04:13:25;;;;;;;10.13;5.43;;;9.50;99.90;;;;;;5120239;27;20047;-77
2021/12/17 04:15:56;;;;;;;6.82;5.03;;;9.50;99.90;;;;;;5119518;27;20391;-77
2021/12/17 04:18:22;;;;;;;7.50;5.57;;;9.40;99.90;;;;;;5117910;27;20063;-77
2021/12/17 04:20:48;;;;;;;8.65;5.35;;;9.40;99.90;;;;;;5119631;27;20405;-77
2021/12/17 04:23:14;;;;;;;8.55;5.40;;;9.40;99.90;;;;;;5119969;27;20764;-77
2021/12/17 04:25:40;;;;;;;8.65;5.65;;;9.40;99.90;;;;;;5116929;27;20340;-77
2021/12/17 04:28:05;;;;;;;8.50;5.50;;;9.40;99.90;;;;;;5138046;27;20051;-77
2021/12/17 04:30:32;;;;;;;6.88;4.53;;;9.40;99.90;;;;;;5138966;27;20039;-77
2021/12/17 04:32:58;;;;;;;9.20;4.93;;;9.40;99.90;;;;;;5138625;27;20047;-77
2021/12/17 04:35:23;;;;;;;6.45;4.28;;;9.40;99.90;;;;;;5120726;27;20054;-77
2021/12/17 04:37:50;;;;;;;8.57;5.05;;;9.40;99.90;;;;;;5123078;27;20048;-77
2021/12/17 04:40:17;;;;;;;9.38;4.65;;;9.40;99.90;;;;;;5119095;27;20372;-77
2021/12/17 04:45:25;;;;;;;8.30;5.20;;;9.30;99.90;;;;;;5117565;27;20060;-77
2021/12/17 04:58:47;;;;;;;8.00;5.07;;;9.30;99.90;;;;;;5110819;27;20103;-77
2021/12/17 05:01:15;;;;;;;5.47;4.88;;;9.30;99.90;;;;;;5119156;27;20054;-77
2021/12/17 05:03:41;;;;;;;7.90;5.20;;;9.30;99.90;;;;;;5112263;27;20117;-77
2021/12/17 05:06:07;;;;;;;7.85;4.68;;;9.20;99.90;;;;;;5119683;27;20039;-77
2021/12/17 05:08:33;;;;;;;8.20;4.25;;;9.20;99.90;;;;;;5121185;27;20050;-77
2021/12/17 05:11:26;;;;;;;6.88;4.18;;;9.30;99.90;;;;;;5118598;27;20092;-77
2021/12/17 05:19:41;;;;;;;7.05;4.72;;;9.30;99.90;;;;;;5133985;27;20046;-77
2021/12/17 05:22:10;;;;;;;6.32;3.97;;;9.30;99.90;;;;;;5119124;27;20135;-77
2021/12/17 05:24:36;;;;;;;5.22;3.75;;;9.30;99.90;;;;;;5118350;27;20051;-77
2021/12/17 05:27:02;;;;;;;6.00;4.25;;;9.30;99.90;;;;;;5119444;27;20052;-77
2021/12/17 05:29:27;;;;;;;7.78;3.95;;;9.30;99.90;;;;;;5138337;27;20047;-77
2021/12/17 05:31:53;;;;;;;6.20;4.35;;;9.30;99.90;;;;;;5118257;27;20107;-75
2021/12/17 05:34:19;;;;;;;5.45;4.45;;;9.30;99.90;;;;;;5137520;27;20046;-75
2021/12/17 05:36:44;;;;;;;6.80;4.50;;;9.30;99.90;;;;;;5119162;27;20046;-75
2021/12/17 05:39:10;;;;;;;6.25;4.22;;;9.20;99.90;;;;;;5118808;27;20046;-75
2021/12/17 05:41:35;;;;;;;5.95;5.05;;;9.20;99.90;;;;;;5119432;27;20043;-75
2021/12/17 05:44:01;;;;;;;8.25;4.57;;;9.30;99.90;;;;;;5119141;27;20049;-75
2021/12/17 05:49:11;;;;;;;6.88;4.70;;;9.30;99.90;;;;;;5117712;27;20672;-76
2021/12/17 05:51:36;;;;;;;6.07;4.90;;;9.30;99.90;;;;;;5116462;27;20058;-75
2021/12/17 05:54:02;;;;;;;6.10;4.35;;;9.30;99.90;;;;;;5117628;27;20061;-76
2021/12/17 05:56:28;;;;;;;5.90;4.32;;;9.20;99.90;;;;;;5120021;27;20119;-75
2021/12/17 05:58:55;;;;;;;6.65;4.70;;;9.20;99.90;;;;;;5140015;27;20047;-75
2021/12/17 06:01:21;;;;;;;5.40;4.05;;;9.20;99.90;;;;;;5116897;27;20089;-75
2021/12/17 06:03:46;;;;;;;6.60;5.00;;;9.10;99.90;;;;;;5138298;27;20535;-75
2021/12/17 06:06:12;;;;;;;8.25;5.18;;;8.80;99.90;;;;;;5118394;27;20070;-75
2021/12/17 06:08:38;;;;;;;9.95;5.20;;;9.20;99.90;;;;;;5121614;27;20686;-75
2021/12/17 06:11:03;;;;;;;6.57;5.03;;;9.20;99.90;;;;;;5119413;27;20066;-75
2021/12/17 06:13:29;;;;;;;9.32;6.78;;;9.20;99.90;;;;;;5118880;27;20062;-74
2021/12/17 06:15:54;;;;;;;8.75;5.65;;;9.20;99.90;;;;;;5118531;27;20047;-75
2021/12/17 06:18:20;;;;;;;7.45;6.10;;;9.20;99.90;;;;;;5147051;27;20049;-74
2021/12/17 06:20:45;;;;;;;5.93;4.50;;;9.20;99.90;;;;;;5120378;27;20054;-74
2021/12/17 06:23:11;;;;;;;9.52;5.28;;;9.20;99.90;;;;;;5140864;27;20077;-75
2021/12/17 06:25:36;;;;;;;6.40;5.05;;;9.20;99.90;;;;;;5119168;27;20046;-75
2021/12/17 06:28:02;;;;;;;8.40;5.15;;;9.20;99.90;;;;;;5137045;27;20641;-75
2021/12/17 06:30:28;;;;;;;10.45;5.78;;;9.20;99.90;;;;;;5119295;27;20053;-74
2021/12/17 06:32:53;;;;;;;7.35;5.85;;;9.60;99.90;;;;;;5138702;27;20055;-75
2021/12/17 06:35:19;;;;;;;9.23;5.68;;;9.20;99.90;;;;;;5120133;27;20133;-75
2021/12/17 06:37:45;;;;;;;8.32;5.57;;;9.20;99.90;;;;;;5137606;27;20042;-74
2021/12/17 06:40:11;;;;;;;10.52;6.30;;;9.20;99.90;;;;;;5118929;27;20607;-75
2021/12/17 06:42:37;;;;;;;10.70;6.40;;;9.20;99.90;;;;;;5120174;27;20047;-75
2021/12/17 06:45:08;;;;;;;11.02;6.63;;;9.20;99.90;;;;;;5120922;27;20111;-75
2021/12/17 06:47:36;;;;;;;9.30;6.40;;;9.20;99.90;;;;;;5139572;27;20050;-75
2021/12/17 07:06:40;;;;;;;8.63;6.03;;;9.30;99.90;;;;;;5139342;27;20149;-75
2021/12/17 07:17:08;;;;;;;10.98;6.22;;;9.20;99.90;;;;;;5119979;27;20051;-75
2021/12/17 07:17:08;;;;;;;9.00;6.60;;;9.20;99.90;;;;;;5120486;27;20428;-75
2021/12/17 07:17:38;;;;;;;9.32;5.60;;;9.20;99.90;;;;;;5091753;27;20043;-74
2021/12/17 07:28:11;;;;;;;8.25;6.25;;;9.20;99.90;;;;;;5115889;27;20055;-75
2021/12/17 07:33:13;;;;;;;9.18;6.30;;;9.20;99.90;;;;;;5122939;27;20078;-75
2021/12/17 07:35:48;;;;;;;10.93;7.13;;;9.20;99.90;;;;;;5142184;27;20050;-75
2021/12/17 07:41:00;;;;;;;9.52;7.00;;;9.20;99.90;;;;;;5142039;27;20053;-74
2021/12/17 07:43:29;;;;;;;8.80;6.70;;;8.80;99.90;;;;;;5122400;27;20762;-74
2021/12/17 07:45:56;;;;;;;11.90;7.00;;;9.30;99.90;;;;;;5141532;27;20058;-75
2021/12/17 07:48:22;;;;;;;11.70;6.85;;;9.30;99.90;;;;;;5122223;27;20492;-75
2021/12/17 07:50:48;;;;;;;9.55;7.07;;;9.30;99.90;;;;;;5142188;27;20149;-74
2021/12/17 07:53:14;;;;;;;10.57;7.07;;;9.20;99.90;;;;;;5140962;27;20045;-75
2021/12/17 07:55:40;;;;;;;12.63;8.18;;;9.30;99.90;;;;;;5141848;27;20050;-74
2021/12/17 07:58:05;;;;;;;16.38;8.10;;;9.30;99.90;;;;;;5141171;27;20047;-73
2021/12/17 08:00:31;;;;;;;9.30;7.15;;;9.30;99.90;;;;;;5140858;27;20061;-74
2021/12/17 08:02:57;;;;;;;8.90;6.72;;;9.30;99.90;;;;;;5122333;27;20445;-73
2021/12/17 08:05:22;;;;;;;13.38;8.60;;;9.30;99.90;;;;;;5140576;27;20062;-74
2021/12/17 08:07:48;;;;;;;9.43;7.03;;;9.30;99.90;;;;;;5121679;27;20050;-74
2021/12/17 08:10:13;;;;;;;13.32;7.65;;;9.40;99.90;;;;;;5142457;27;20051;-74
2021/12/17 08:12:39;;;;;;;14.20;7.50;;;9.40;99.90;;;;;;5139492;27;20127;-73
2021/12/17 08:15:08;;;;;;;11.30;8.27;;;9.40;99.90;;;;;;5121626;27;20047;-73
2021/12/17 08:26:06;;;;;;;13.50;7.32;;;9.50;99.90;;;;;;5137477;27;20051;-73
2021/12/17 08:28:52;;;;;;;12.10;7.15;;;9.50;99.90;;;;;;5118883;27;20058;-73
2021/12/17 08:31:18;;;;;;;13.88;7.45;;;9.50;99.90;;;;;;5138302;27;20111;-73
2021/12/17 08:33:44;;;;;;;9.25;6.13;;;9.50;99.90;;;;;;5119372;27;20600;-74
2021/12/17 08:36:11;;;;;;;14.07;7.88;;;9.60;99.90;;;;;;5138060;27;20145;-73
2021/12/17 08:38:36;;;;;;;13.70;7.53;;;9.60;99.90;;;;;;5119774;27;20162;-73
2021/12/17 08:41:02;;;;;;;14.18;7.90;;;9.60;99.90;;;;;;5119132;27;20046;-73
2021/12/17 08:43:28;;;;;;;14.68;7.40;;;9.60;99.90;;;;;;5138597;27;20120;-73
2021/12/17 08:45:53;;;;;;;13.25;8.75;;;9.60;99.90;;;;;;5137935;27;20066;-73
2021/12/17 08:48:19;;;;;;;10.88;8.20;;;9.60;99.90;;;;;;5123753;27;20824;-73
2021/12/17 08:50:45;;;;;;;13.82;8.15;;;9.60;99.90;;;;;;5137111;27;20047;-73
2021/12/17 08:53:10;;;;;;;13.73;7.90;;;9.60;99.90;;;;;;5119459;27;20559;-74
2021/12/17 08:55:36;;;;;;;16.05;7.88;;;9.60;99.90;;;;;;5134417;27;20047;-73
2021/12/17 08:58:02;;;;;;;13.05;8.35;;;9.60;99.90;;;;;;5120081;27;20534;-73
2021/12/17 09:00:28;;;;;;;8.63;6.70;;;9.70;99.90;;;;;;5120421;27;20051;-73
2021/12/17 09:02:59;;;;;;;11.77;8.60;;;9.70;99.90;;;;;;5140698;27;20043;-73
2021/12/17 09:05:25;;;;;;;14.95;8.70;;;9.70;99.90;;;;;;5136202;27;20058;-73
2021/12/17 09:07:51;;;;;;;11.48;8.27;;;9.70;99.90;;;;;;5137398;27;20171;-73
2021/12/17 09:10:21;;;;;;;10.77;8.02;;;9.70;99.90;;;;;;5118654;27;20062;-73
2021/12/17 09:12:47;;;;;;;12.88;8.75;;;9.80;99.90;;;;;;5118196;27;20488;-73
2021/12/17 09:15:12;;;;;;;14.32;9.40;;;9.80;99.90;;;;;;4760943;27;10000058;-73
2021/12/17 09:17:38;;;;;;;13.63;8.30;;;9.80;99.90;;;;;;5113491;27;21386;-75
2021/12/17 09:20:06;;;;;;;13.48;7.13;;;9.80;99.90;;;;;;5100664;27;20429;-74
2021/12/17 09:22:34;;;;;;;12.07;7.25;;;9.90;99.90;;;;;;5115391;27;20043;-73
2021/12/17 09:25:00;;;;;;;13.18;8.18;;;9.90;99.90;;;;;;5135901;27;20038;-73
2021/12/17 09:27:26;;;;;;;12.75;8.73;;;9.90;99.90;;;;;;5117741;27;20827;-73
2021/12/17 09:29:51;;;;;;;11.98;7.50;;;9.90;99.90;;;;;;5115746;27;20039;-73
2021/12/17 09:32:17;;;;;;;9.43;6.88;;;9.90;99.90;;;;;;5115912;27;20414;-73
2021/12/17 09:34:42;;;;;;;10.10;7.13;;;9.90;99.90;;;;;;5136042;27;20099;-73
2021/12/17 09:37:08;;;;;;;10.60;8.20;;;9.90;99.90;;;;;;5117796;27;20900;-67
2021/12/17 09:39:34;;;;;;;9.30;6.80;;;10.00;99.90;;;;;;5136685;27;20520;-74
2021/12/17 09:41:59;;;;;;;12.98;8.00;;;10.00;99.90;;;;;;5117338;27;20035;-74
2021/12/17 09:44:25;;;;;;;11.63;7.25;;;10.00;99.90;;;;;;5135202;27;20497;-74
2021/12/17 09:46:51;;;;;;;10.90;7.00;;;10.00;99.90;;;;;;5135760;27;20521;-74
2021/12/17 09:49:17;;;;;;;9.48;6.68;;;10.10;99.90;;;;;;5116831;27;20069;-74
2021/12/17 09:51:45;;;;;;;13.20;7.35;;;10.10;99.90;;;;;;5134886;27;20103;-76
2021/12/17 09:54:11;;;;;;;10.32;6.63;;;10.10;99.90;;;;;;5117450;27;20050;-75
2021/12/17 09:56:37;;;;;;;10.90;6.68;;;10.00;99.90;;;;;;5117482;27;20100;-75
2021/12/17 09:59:02;;;;;;;8.40;6.78;;;10.10;99.90;;;;;;5134697;27;20163;-75
2021/12/17 10:01:28;;;;;;;12.77;8.30;;;10.10;99.90;;;;;;5135041;27;20123;-74
2021/12/17 10:04:13;;;;;;;9.00;7.35;;;10.10;99.90;;;;;;5116997;27;20085;-74
2021/12/17 10:06:38;;;;;;;11.32;6.68;;;10.10;99.90;;;;;;5116449;27;20068;-74
2021/12/17 10:09:04;;;;;;;10.57;6.57;;;10.10;99.90;;;;;;5118168;27;20042;-70
2021/12/17 10:11:30;;;;;;;10.00;7.47;;;10.10;99.90;;;;;;5136096;27;20051;-70
2021/12/17 10:14:18;;;;;;;12.02;8.18;;;10.10;99.90;;;;;;5115017;27;20154;-70
2021/12/17 10:16:44;;;;;;;11.90;6.00;;;10.10;99.90;;;;;;5135613;27;20640;-70
2021/12/17 10:19:09;;;;;;;15.70;7.40;;;10.20;99.90;;;;;;5116800;27;20047;-70
2021/12/17 10:21:38;;;;;;;12.30;7.93;;;10.20;99.90;;;;;;5136462;27;20087;-73
2021/12/17 10:24:04;;;;;;;14.68;7.38;;;10.20;99.90;;;;;;5135950;27;20645;-74
2021/12/17 10:26:41;;;;;;;8.02;6.75;;;10.20;99.90;;;;;;5118356;27;20051;-72
2021/12/17 10:29:06;;;;;;;11.48;7.32;;;10.30;99.90;;;;;;5135597;27;20039;-73
2021/12/17 10:31:36;;;;;;;11.10;6.45;;;10.20;99.90;;;;;;5117520;27;20085;-74
2021/12/17 10:34:04;;;;;;;12.45;6.18;;;10.30;99.90;;;;;;5116300;27;20054;-74
2021/12/17 10:36:33;;;;;;;8.43;5.57;;;10.30;99.90;;;;;;5117221;27;20736;-67
2021/12/17 10:39:01;;;;;;;7.88;5.97;;;10.30;99.90;;;;;;5116121;27;20162;-72
2021/12/17 10:41:27;;;;;;;10.35;6.30;;;10.40;99.90;;;;;;5117123;27;20046;-74
2021/12/17 10:43:58;;;;;;;10.32;5.95;;;10.40;99.90;;;;;;5138670;27;20085;-74
2021/12/17 10:46:27;;;;;;;11.38;7.80;;;10.40;99.90;;;;;;5120377;27;20058;-74
2021/12/17 10:49:01;;;;;;;9.77;7.03;;;10.50;99.90;;;;;;5118835;27;20386;-74
2021/12/17 10:51:44;;;;;;;7.40;6.07;;;10.50;99.90;;;;;;5118884;27;20154;-74
2021/12/17 10:54:18;;;;;;;10.90;5.50;;;10.60;99.90;;;;;;5114779;27;20062;-75
2021/12/17 10:56:54;;;;;;;8.25;5.50;;;10.60;99.90;;;;;;5120542;27;20062;-75
2021/12/17 10:59:30;;;;;;;12.45;7.88;;;10.60;99.90;;;;;;5120396;27;20622;-74
2021/12/17 11:02:05;;;;;;;9.10;6.13;;;10.60;99.90;;;;;;5119162;27;20508;-75
2021/12/17 11:04:38;;;;;;;10.77;6.68;;;10.60;99.90;;;;;;5119872;27;20059;-75
2021/12/17 11:07:13;;;;;;;9.65;5.82;;;10.60;99.90;;;;;;5120110;27;20062;-75
2021/12/17 11:09:41;;;;;;;10.32;5.97;;;10.60;99.90;;;;;;5139949;27;20054;-75
2021/12/17 11:12:36;;;;;;;7.50;5.60;;;10.60;99.90;;;;;;5120313;27;20142;-75
2021/12/17 11:15:10;;;;;;;8.52;5.72;;;10.70;99.90;;;;;;5119117;27;20107;-75
2021/12/17 11:17:36;;;;;;;9.98;6.45;;;10.70;99.90;;;;;;5120898;27;20171;-75
2021/12/17 11:20:14;;;;;;;11.50;6.28;;;10.70;99.90;;;;;;5120766;27;20138;-75
2021/12/17 11:22:42;;;;;;;9.60;6.03;;;10.70;99.90;;;;;;5120271;27;20165;-75
2021/12/17 11:25:08;;;;;;;9.85;5.63;;;10.70;99.90;;;;;;5121149;27;20142;-75
2021/12/17 11:27:34;;;;;;;9.82;6.10;;;10.80;99.90;;;;;;5121145;27;20569;-75
2021/12/17 11:30:02;;;;;;;9.60;6.70;;;10.70;99.90;;;;;;5132593;27;20148;-76
2021/12/17 11:32:28;;;;;;;8.15;5.22;;;10.60;99.90;;;;;;5119241;27;20171;-76
2021/12/17 11:34:54;;;;;;;7.97;5.57;;;10.60;99.90;;;;;;5140084;27;20779;-76
2021/12/17 11:37:20;;;;;;;12.45;6.32;;;10.60;99.90;;;;;;5140001;27;20142;-76
2021/12/17 11:39:55;;;;;;;7.75;5.30;;;10.50;99.90;;;;;;5122719;27;20058;-75
2021/12/17 11:43:10;;;;;;;8.65;6.03;;;10.50;99.90;;;;;;5122224;27;20446;-75
2021/12/17 11:45:36;;;;;;;7.65;5.93;;;10.40;99.90;;;;;;5092922;27;20086;-75
2021/12/17 11:48:22;;;;;;;6.55;5.25;;;10.40;99.90;;;;;;5121943;27;20145;-75
2021/12/17 11:51:04;;;;;;;5.80;5.20;;;10.30;99.90;;;;;;5141424;27;20057;-75
2021/12/17 11:53:31;;;;;;;5.83;4.70;;;10.20;99.90;;;;;;5140398;27;20043;-75
2021/12/17 11:56:00;;;;;;;6.72;4.90;;;10.20;99.90;;;;;;5121659;27;20043;-74
2021/12/17 11:58:43;;;;;;;5.68;4.78;;;10.20;99.90;;;;;;5113742;27;20497;-74
2021/12/17 12:01:09;;;;;;;6.50;4.22;;;10.20;99.90;;;;;;5121558;27;20054;-75
2021/12/17 12:03:35;;;;;;;5.78;4.03;;;10.20;99.90;;;;;;5140042;27;20680;-73
2021/12/17 12:06:00;;;;;;;6.60;3.90;;;10.20;99.90;;;;;;5139088;27;20074;-74
2021/12/17 12:08:37;;;;;;;5.18;3.97;;;10.20;99.90;;;;;;5121945;27;20458;-74
2021/12/17 12:11:19;;;;;;;4.10;3.50;;;10.20;99.90;;;;;;5139861;27;20107;-74
2021/12/17 12:13:50;;;;;;;6.55;4.28;;;10.20;99.90;;;;;;5122756;27;20145;-74
2021/12/17 12:16:18;;;;;;;4.88;3.92;;;10.20;99.90;;;;;;5122239;27;20150;-74
2021/12/17 12:19:14;;;;;;;5.18;4.40;;;10.20;99.90;;;;;;5122159;27;20047;-74
2021/12/17 12:21:40;;;;;;;5.45;3.70;;;10.20;99.90;;;;;;5118366;27;20055;-74
2021/12/17 12:24:11;;;;;;;4.60;2.88;;;10.20;99.90;;;;;;5122034;27;20057;-74
2021/12/17 12:26:44;;;;;;;3.80;2.58;;;10.20;99.90;;;;;;5122828;27;20074;-75
2021/12/17 12:29:21;;;;;;;;;;;10.20;99.90;;;;;;5122289;27;20046;-75
2021/12/17 12:32:10;;;;;;;2.47;2.17;;;10.10;99.90;;;;;;5122376;27;20339;-76
2021/12/17 12:34:39;;;;;;;2.97;2.15;;;10.10;99.90;;;;;;5121946;27;20734;-75
2021/12/17 12:37:07;;;;;;;2.80;1.73;;;10.20;99.90;;;;;;5122261;27;20490;-76
2021/12/17 12:39:55;;;;;;;2.05;1.95;;;10.20;99.90;;;;;;5121577;27;20150;-76
2021/12/17 12:42:25;;;;;;;2.90;2.03;;;10.10;99.90;;;;;;5121930;27;20050;-76
2021/12/17 12:44:50;;;;;;;2.55;1.75;;;10.20;99.90;;;;;;5121630;27;20074;-76
2021/12/17 12:47:31;;;;;;;3.78;2.03;;;10.10;99.90;;;;;;5121640;27;20435;-76
2021/12/17 12:50:07;;;;;;;3.20;1.70;;;10.20;99.90;;;;;;5116399;27;20069;-77
2021/12/17 12:52:46;;;;;;;2.33;1.60;;;10.20;99.90;;;;;;5121791;27;20043;-77
2021/12/17 12:55:40;;;;;;;13.43;10.70;;;10.20;99.90;;;;;;5120843;27;20111;-76
2021/12/17 12:58:07;;;;;;;;;;;10.20;99.90;;;;;;5140552;27;20047;-77
2021/12/17 13:01:02;;;;;;;4.85;3.70;;;10.20;99.90;;;;;;5121233;27;20024;-77
2021/12/17 13:03:33;;;;;;;1.77;1.55;;;10.20;99.90;;;;;;5137502;27;20187;-77
2021/12/17 13:06:00;;;;;;;7.38;6.63;;;10.20;99.90;;;;;;5121505;27;20110;-77
2021/12/17 13:08:30;;;;;;;2.45;1.90;;;10.10;99.90;;;;;;5141117;27;20118;-76
2021/12/17 13:11:01;;;;;;;4.03;2.38;;;10.10;99.90;;;;;;5121799;27;20604;-77
2021/12/17 13:13:34;;;;;;;2.83;1.98;;;10.00;99.90;;;;;;5122116;27;20795;-77
2021/12/17 13:16:14;;;;;;;2.88;1.80;;;10.10;99.90;;;;;;5139852;27;20129;-78
2021/12/17 13:24:12;;;;;;;3.78;2.22;;;10.10;99.90;;;;;;5140331;27;20073;-78
2021/12/17 13:26:41;;;;;;;3.70;2.40;;;10.10;99.90;;;;;;5119984;27;20110;-78
2021/12/17 13:29:13;;;;;;;3.70;2.05;;;10.10;99.90;;;;;;5139220;27;20070;-78
2021/12/17 13:31:48;;;;;;;3.50;2.53;;;10.10;99.90;;;;;;5121218;27;20081;-78
2021/12/17 13:34:43;;;;;;;3.83;2.55;;;10.00;99.90;;;;;;5120931;27;20066;-78
2021/12/17 13:37:12;;;;;;;3.15;2.80;;;10.00;99.90;;;;;;5120368;27;20179;-78
2021/12/17 13:39:41;;;;;;;3.30;3.00;;;10.00;99.90;;;;;;5140167;27;20074;-78
2021/12/17 13:42:09;;;;;;;5.32;3.22;;;10.10;99.90;;;;;;5140077;27;20076;-78
2021/12/17 13:44:46;;;;;;;4.03;2.60;;;10.10;99.90;;;;;;5120628;27;20461;-78
2021/12/17 13:47:17;;;;;;;3.92;2.85;;;10.10;99.90;;;;;;5139647;27;20057;-77
2021/12/17 13:49:47;;;;;;;4.30;3.55;;;10.10;99.90;;;;;;5139349;27;20149;-78
2021/12/17 13:52:13;;;;;;;4.53;2.75;;;10.10;99.90;;;;;;5113966;27;20051;-78
2021/12/17 13:54:39;;;;;;;3.60;2.92;;;10.10;99.90;;;;;;5119785;27;20042;-78
2021/12/17 13:57:06;;;;;;;3.92;3.10;;;10.10;99.90;;;;;;5119077;27;20049;-77
2021/12/17 13:59:35;;;;;;;4.43;2.90;;;10.10;99.90;;;;;;5120430;27;20054;-78
2021/12/17 14:02:27;;;;;;;5.45;3.92;;;10.10;99.90;;;;;;5139219;27;20051;-77
2021/12/17 14:05:09;;;;;;;4.10;3.35;;;10.10;99.90;;;;;;5112562;27;20518;-77
2021/12/17 14:07:36;;;;;;;4.03;3.63;;;10.10;99.90;;;;;;5139486;27;20050;-77
2021/12/17 14:10:15;;;;;;;7.93;3.95;;;10.10;99.90;;;;;;5119796;27;20055;-77
2021/12/17 14:12:42;;;;;;;7.78;3.80;;;10.20;99.90;;;;;;5119411;27;20058;-72
2021/12/17 14:15:11;;;;;;;4.30;3.40;;;10.20;99.90;;;;;;5120855;27;20050;-72
2021/12/17 14:17:44;;;;;;;4.68;4.20;;;10.20;99.90;;;;;;5123475;27;20053;-72
2021/12/17 14:20:14;;;;;;;7.83;5.87;;;10.30;99.90;;;;;;5117894;27;20142;-72
2021/12/17 14:22:42;;;;;;;5.38;3.72;;;10.30;99.90;;;;;;5124720;27;20057;-78
2021/12/17 14:25:31;;;;;;;4.82;3.78;;;10.30;99.90;;;;;;5122766;27;20907;-78
2021/12/17 14:28:00;;;;;;;5.97;4.00;;;10.30;99.90;;;;;;5120684;27;20042;-78
2021/12/17 14:30:33;;;;;;;4.63;3.50;;;10.30;99.90;;;;;;5121202;27;20074;-78
2021/12/17 14:33:10;;;;;;;3.87;2.90;;;10.20;99.90;;;;;;5122241;27;20377;-78
2021/12/17 14:35:41;;;;;;;4.75;3.38;;;10.30;99.90;;;;;;5121357;27;20288;-77
2021/12/17 14:38:07;;;;;;;4.88;3.33;;;10.30;99.90;;;;;;5139140;27;20076;-77
2021/12/17 14:40:43;;;;;;;5.85;3.05;;;10.20;99.90;;;;;;5119291;27;20493;-78
2021/12/17 14:43:26;;;;;;;4.03;3.28;;;10.30;99.90;;;;;;5136082;27;20078;-78
2021/12/17 14:45:54;;;;;;;4.43;3.22;;;10.30;99.90;;;;;;5117382;27;20125;-78
2021/12/17 14:48:29;;;;;;;3.65;2.67;;;10.30;99.90;;;;;;5119840;27;20497;-78
2021/12/17 15:02:25;;;;;;;4.28;3.20;;;10.20;99.90;;;;;;5118488;27;20050;-77
2021/12/17 15:04:50;;;;;;;9.02;3.90;;;10.20;99.90;;;;;;5119440;27;20074;-78
2021/12/17 15:07:18;;;;;;;5.10;3.55;;;10.10;99.90;;;;;;5118605;27;20133;-78
2021/12/17 15:09:45;;;;;;;5.80;4.30;;;10.10;99.90;;;;;;5137957;27;20066;-77
2021/12/17 15:12:25;;;;;;;3.38;3.08;;;10.20;99.90;;;;;;5138603;27;20120;-78
2021/12/17 15:14:52;;;;;;;6.38;3.78;;;10.20;99.90;;;;;;5138311;27;20078;-78
2021/12/17 15:17:18;;;;;;;8.90;4.63;;;10.20;99.90;;;;;;5138621;27;20053;-79
2021/12/17 15:19:43;;;;;;;4.93;3.95;;;10.20;99.90;;;;;;5119509;27;20051;-78
2021/12/17 15:22:09;;;;;;;6.28;4.60;;;10.20;99.90;;;;;;5119914;27;21078;-78
2021/12/17 15:24:34;;;;;;;4.15;3.15;;;10.20;99.90;;;;;;5119644;27;20564;-78
2021/12/17 15:27:00;;;;;;;6.00;4.75;;;10.20;99.90;;;;;;5119679;27;20138;-78
2021/12/17 15:29:25;;;;;;;7.35;4.45;;;10.20;99.90;;;;;;5135890;27;20045;-78
2021/12/17 15:31:52;;;;;;;6.82;4.20;;;10.20;99.90;;;;;;5118037;27;20145;-79
2021/12/17 15:34:18;;;;;;;5.18;3.65;;;10.30;99.90;;;;;;5138775;27;20383;-78
2021/12/17 15:36:44;;;;;;;5.82;3.33;;;10.30;99.90;;;;;;5138610;27;20043;-78
2021/12/17 15:39:09;;;;;;;4.68;4.28;;;10.30;99.90;;;;;;5120538;27;20770;-78
2021/12/17 15:41:39;;;;;;;5.05;3.90;;;10.30;99.90;;;;;;5119852;27;20058;-77
2021/12/17 15:44:06;;;;;;;7.32;3.97;;;10.30;99.90;;;;;;5138944;27;20055;-78
2021/12/17 15:46:32;;;;;;;5.10;4.60;;;10.30;99.90;;;;;;5119315;27;20043;-78
2021/12/17 15:48:57;;;;;;;6.63;4.78;;;10.30;99.90;;;;;;5138734;27;20414;-78
2021/12/17 15:51:23;;;;;;;6.40;5.40;;;10.20;99.90;;;;;;5119776;27;20045;-78
2021/12/17 15:53:48;;;;;;;5.47;4.85;;;10.20;99.90;;;;;;5119699;27;20063;-78
2021/12/17 15:56:14;;;;;;;6.38;5.13;;;10.20;99.90;;;;;;5119203;27;20078;-78